createdAt,value
2022-10-24T00:01:38.327Z,27.83
2022-10-24T00:06:39.074Z,24.60
2022-10-24T00:09:08.830Z,24.80
2022-10-24T00:11:38.523Z,23.17
2022-10-24T00:14:06.416Z,24.60
2022-10-24T00:16:35.753Z,23.47
2022-10-24T00:19:03.655Z,21.83
2022-10-24T00:21:31.519Z,23.40
2022-10-24T00:23:59.377Z,23.73
2022-10-24T00:26:30.080Z,27.93
2022-10-24T00:28:57.969Z,23.53
2022-10-24T00:31:25.839Z,28.50
2022-10-24T00:33:53.720Z,28.43
2022-10-24T00:36:23.277Z,29.77
2022-10-24T00:38:52.446Z,35.47
2022-10-24T00:41:22.625Z,30.10
2022-10-24T00:43:51.872Z,25.43
2022-10-24T00:46:21.618Z,25.83
2022-10-24T00:48:53.199Z,28.13
2022-10-24T00:51:24.625Z,27.83
2022-10-24T00:53:55.314Z,28.77
2022-10-24T00:56:26.068Z,32.17
2022-10-24T00:58:57.908Z,28.10
2022-10-24T01:01:26.091Z,31.43
2022-10-24T01:03:53.937Z,27.57
2022-10-24T01:06:35.642Z,24.97
2022-10-24T01:09:14.600Z,25.10
2022-10-24T01:11:57.681Z,27.03
2022-10-24T01:14:51.711Z,31.87
2022-10-24T01:17:26.748Z,27.27
2022-10-24T01:20:18.638Z,22.93
2022-10-24T01:23:02.307Z,24.43
2022-10-24T01:25:42.224Z,28.47
2022-10-24T01:28:15.661Z,21.87
2022-10-24T01:30:48.617Z,20.70
2022-10-24T01:33:24.192Z,23.27
2022-10-24T01:35:56.931Z,19.73
2022-10-24T01:38:31.724Z,21.60
2022-10-24T01:41:04.712Z,21.43
2022-10-24T01:43:37.226Z,21.17
2022-10-24T01:46:10.993Z,21.37
2022-10-24T01:48:42.568Z,18.30
2022-10-24T01:51:12.891Z,21.10
2022-10-24T01:53:43.403Z,23.30
2022-10-24T01:56:11.575Z,22.53
2022-10-24T01:58:39.431Z,24.47
2022-10-24T02:01:13.449Z,24.47
2022-10-24T02:03:45.874Z,23.60
2022-10-24T02:06:20.328Z,22.07
2022-10-24T02:08:54.139Z,33.23
2022-10-24T02:11:22.039Z,24.37
2022-10-24T02:13:57.467Z,24.13
2022-10-24T02:16:27.073Z,21.13
2022-10-24T02:18:57.447Z,21.80
2022-10-24T02:21:32.922Z,22.13
2022-10-24T02:24:04.327Z,20.63
2022-10-24T02:26:35.660Z,22.80
2022-10-24T02:29:08.440Z,22.17
2022-10-24T02:31:42.460Z,25.07
2022-10-24T02:34:13.881Z,26.20
2022-10-24T02:36:45.152Z,25.33
2022-10-24T02:39:14.073Z,23.03
2022-10-24T02:41:44.669Z,22.60
2022-10-24T02:44:15.507Z,22.20
2022-10-24T02:46:47.484Z,21.67
2022-10-24T02:49:15.777Z,21.80
2022-10-24T02:51:45.964Z,24.43
2022-10-24T02:54:14.328Z,21.83
2022-10-24T02:56:47.087Z,22.37
2022-10-24T02:59:15.049Z,24.50
2022-10-24T03:01:44.347Z,22.77
2022-10-24T03:04:12.245Z,26.23
2022-10-24T03:06:40.079Z,24.53
2022-10-24T03:09:07.934Z,22.57
2022-10-24T03:11:35.960Z,24.20
2022-10-24T03:14:04.055Z,24.67
2022-10-24T03:16:32.009Z,23.97
2022-10-24T03:19:01.327Z,21.47
2022-10-24T03:21:29.163Z,23.10
2022-10-24T03:23:57.036Z,22.30
2022-10-24T03:26:24.919Z,22.17
2022-10-24T03:28:52.778Z,24.33
2022-10-24T03:31:20.656Z,23.17
2022-10-24T03:33:48.532Z,28.30
2022-10-24T03:36:17.955Z,25.43
2022-10-24T03:38:45.821Z,27.17
2022-10-24T03:41:13.668Z,25.50
2022-10-24T03:43:41.521Z,27.93
2022-10-24T03:46:09.475Z,27.60
2022-10-24T03:48:37.516Z,25.40
2022-10-24T03:51:05.452Z,23.10
2022-10-24T03:53:34.631Z,24.93
2022-10-24T03:56:02.562Z,20.63
2022-10-24T03:58:30.436Z,20.57
2022-10-24T04:00:59.409Z,22.33
2022-10-24T04:03:28.134Z,24.70
2022-10-24T04:05:56.088Z,24.97
2022-10-24T04:08:23.968Z,25.17
2022-10-24T04:10:53.209Z,23.43
2022-10-24T04:13:21.099Z,20.57
2022-10-24T04:15:48.996Z,21.13
2022-10-24T04:18:16.835Z,24.67
2022-10-24T04:20:44.677Z,23.23
2022-10-24T04:23:12.540Z,21.90
2022-10-24T04:25:41.003Z,29.30
2022-10-24T04:28:10.288Z,23.00
2022-10-24T04:30:38.189Z,24.67
2022-10-24T04:33:06.048Z,24.73
2022-10-24T04:35:33.897Z,22.40
2022-10-24T04:38:01.760Z,20.37
2022-10-24T04:40:29.600Z,19.87
2022-10-24T04:42:57.467Z,20.20
2022-10-24T04:45:26.641Z,17.13
2022-10-24T04:47:54.469Z,19.17
2022-10-24T04:50:22.292Z,19.03
2022-10-24T04:52:50.163Z,21.50
2022-10-24T04:55:18.803Z,25.63
2022-10-24T04:57:46.915Z,25.43
2022-10-24T05:00:15.658Z,28.60
2022-10-24T05:02:45.185Z,26.07
2022-10-24T05:05:13.433Z,23.70
2022-10-24T05:07:41.261Z,21.83
2022-10-24T05:10:09.923Z,29.07
2022-10-24T05:12:38.286Z,26.93
2022-10-24T05:15:07.660Z,22.73
2022-10-24T05:17:36.015Z,35.73
2022-10-24T05:20:06.143Z,25.00
2022-10-24T05:22:34.091Z,32.90
2022-10-24T05:25:01.980Z,33.33
2022-10-24T05:27:29.822Z,29.20
2022-10-24T05:29:57.827Z,22.47
2022-10-24T05:32:26.174Z,23.87
2022-10-24T05:34:54.152Z,21.57
2022-10-24T05:37:23.454Z,20.47
2022-10-24T05:39:51.356Z,25.60
2022-10-24T05:42:19.231Z,25.57
2022-10-24T05:44:47.107Z,22.23
2022-10-24T05:47:15.003Z,30.77
2022-10-24T05:49:42.988Z,26.23
2022-10-24T05:52:10.819Z,26.67
2022-10-24T05:54:55.208Z,21.27
2022-10-24T05:57:28.259Z,19.63
2022-10-24T05:59:56.087Z,22.00
2022-10-24T06:02:24.220Z,23.67
2022-10-24T06:04:52.137Z,18.27
2022-10-24T06:07:20.104Z,18.17
2022-10-24T06:09:49.322Z,16.10
2022-10-24T06:12:17.183Z,21.27
2022-10-24T06:14:45.762Z,23.77
2022-10-24T06:17:13.627Z,26.80
2022-10-24T06:19:41.662Z,22.03
2022-10-24T06:22:10.167Z,33.63
2022-10-24T06:24:39.297Z,28.70
2022-10-24T06:27:08.541Z,30.70
2022-10-24T06:29:36.820Z,36.47
2022-10-24T06:32:04.889Z,28.73
2022-10-24T06:34:32.889Z,31.03
2022-10-24T06:37:00.776Z,34.87
2022-10-24T06:39:28.700Z,33.10
2022-10-24T06:41:56.625Z,31.93
2022-10-24T06:44:25.931Z,26.20
2022-10-24T06:46:53.833Z,29.03
2022-10-24T06:49:21.699Z,25.38
2022-10-24T06:51:49.558Z,26.70
2022-10-24T06:54:17.529Z,28.10
2022-10-24T06:56:45.474Z,26.10
2022-10-24T06:59:17.363Z,23.42
2022-10-24T07:01:46.832Z,32.08
2022-10-24T07:04:14.844Z,25.30
2022-10-24T07:06:42.695Z,28.88
2022-10-24T07:09:15.148Z,27.60
2022-10-24T07:11:43.633Z,27.20
2022-10-24T07:14:11.886Z,24.77
2022-10-24T07:16:40.268Z,24.58
2022-10-24T07:19:09.903Z,23.40
2022-10-24T07:21:38.783Z,27.02
2022-10-24T07:24:07.794Z,36.50
2022-10-24T07:26:35.637Z,26.98
2022-10-24T07:29:04.610Z,21.70
2022-10-24T07:31:34.966Z,35.10
2022-10-24T07:34:04.823Z,23.65
2022-10-24T07:36:34.353Z,24.45
2022-10-24T07:39:02.324Z,24.27
2022-10-24T07:41:32.162Z,22.77
2022-10-24T07:44:02.240Z,29.10
2022-10-24T07:46:30.570Z,26.13
2022-10-24T07:48:58.723Z,29.73
2022-10-24T07:51:28.548Z,26.98
2022-10-24T07:53:58.297Z,28.38
2022-10-24T07:56:26.438Z,26.27
2022-10-24T07:58:55.126Z,19.88
2022-10-24T08:01:25.329Z,21.02
2022-10-24T08:03:53.344Z,21.95
2022-10-24T08:06:23.279Z,26.58
2022-10-24T08:08:51.400Z,20.80
2022-10-24T08:11:22.272Z,24.45
2022-10-24T08:13:51.214Z,20.52
2022-10-24T08:16:22.004Z,24.30
2022-10-24T08:18:52.095Z,21.80
2022-10-24T08:21:21.428Z,19.65
2022-10-24T08:23:52.164Z,19.35
2022-10-24T08:26:23.591Z,19.52
2022-10-24T08:28:51.883Z,23.17
2022-10-24T08:31:22.114Z,26.17
2022-10-24T08:33:52.999Z,20.25
2022-10-24T08:36:24.319Z,19.73
2022-10-24T08:38:52.216Z,18.35
2022-10-24T08:41:27.862Z,16.58
2022-10-24T08:43:57.460Z,22.10
2022-10-24T08:46:38.351Z,17.52
2022-10-24T08:49:15.205Z,22.52
2022-10-24T08:51:47.212Z,18.88
2022-10-24T08:54:19.574Z,21.55
2022-10-24T08:56:49.482Z,23.30
2022-10-24T08:59:17.431Z,21.48
2022-10-24T09:01:49.637Z,22.48
2022-10-24T09:04:21.111Z,21.98
2022-10-24T09:06:50.218Z,19.48
2022-10-24T09:09:24.385Z,16.10
2022-10-24T09:11:55.990Z,21.98
2022-10-24T09:14:27.428Z,20.55
2022-10-24T09:16:59.918Z,15.85
2022-10-24T09:19:30.397Z,15.77
2022-10-24T09:22:00.137Z,12.90
2022-10-24T09:24:34.492Z,14.50
2022-10-24T09:27:06.908Z,15.93
2022-10-24T09:29:35.141Z,15.65
2022-10-24T09:32:04.333Z,12.85
2022-10-24T09:34:32.233Z,12.30
2022-10-24T09:37:00.185Z,12.98
2022-10-24T09:39:31.299Z,14.63
2022-10-24T09:42:00.882Z,18.75
2022-10-24T09:44:34.464Z,18.05
2022-10-24T09:47:04.528Z,16.85
2022-10-24T09:49:36.568Z,12.70
2022-10-24T09:52:09.788Z,13.95
2022-10-24T09:54:38.050Z,14.52
2022-10-24T09:57:13.453Z,10.90
2022-10-24T09:59:45.189Z,10.65
2022-10-24T10:02:21.009Z,15.48
2022-10-24T10:04:50.234Z,24.00
2022-10-24T10:07:20.386Z,12.93
2022-10-24T10:09:56.520Z,13.88
2022-10-24T10:12:30.401Z,10.45
2022-10-24T10:15:00.599Z,12.15
2022-10-24T10:17:31.336Z,11.80
2022-10-24T10:19:59.834Z,11.85
2022-10-24T10:22:30.229Z,12.30
2022-10-24T10:24:59.216Z,17.67
2022-10-24T10:27:32.103Z,12.57
2022-10-24T10:30:22.101Z,11.23
2022-10-24T10:33:12.666Z,13.48
2022-10-24T10:35:49.530Z,11.98
2022-10-24T10:38:37.316Z,11.13
2022-10-24T10:41:08.940Z,13.02
2022-10-24T10:43:44.228Z,10.57
2022-10-24T10:46:24.123Z,15.43
2022-10-24T10:49:03.966Z,14.70
2022-10-24T10:51:43.529Z,11.07
2022-10-24T10:54:25.161Z,12.20
2022-10-24T10:56:55.628Z,10.70
2022-10-24T10:59:40.247Z,10.75
2022-10-24T11:02:28.212Z,10.15
2022-10-24T11:05:05.551Z,12.55
2022-10-24T11:07:41.958Z,15.18
2022-10-24T11:10:14.030Z,12.90
2022-10-24T11:12:44.843Z,11.77
2022-10-24T11:15:21.374Z,11.40
2022-10-24T11:17:56.953Z,12.45
2022-10-24T11:20:28.984Z,15.38
2022-10-24T11:23:01.587Z,13.07
2022-10-24T11:25:37.420Z,12.05
2022-10-24T11:28:13.560Z,10.30
2022-10-24T11:30:48.366Z,17.08
2022-10-24T11:33:21.247Z,15.52
2022-10-24T11:36:08.341Z,10.85
2022-10-24T11:38:41.989Z,11.95
2022-10-24T11:41:48.144Z,10.25
2022-10-24T11:44:31.520Z,12.70
2022-10-24T11:47:08.607Z,13.77
2022-10-24T11:49:43.131Z,13.52
2022-10-24T11:52:18.180Z,10.55
2022-10-24T11:54:52.766Z,12.65
2022-10-24T11:57:25.006Z,11.55
2022-10-24T11:59:54.352Z,8.65
2022-10-24T12:03:18.980Z,14.38
2022-10-24T12:06:01.526Z,15.25
2022-10-24T12:08:48.743Z,10.82
2022-10-24T12:11:40.328Z,9.55
2022-10-24T12:14:27.061Z,13.88
2022-10-24T12:17:15.909Z,14.32
2022-10-24T12:19:46.644Z,18.55
2022-10-24T12:22:21.939Z,15.10
2022-10-24T12:24:50.509Z,14.27
2022-10-24T12:27:28.295Z,13.63
2022-10-24T12:30:05.954Z,11.70
2022-10-24T12:32:40.608Z,15.02
2022-10-24T12:35:44.401Z,12.73
2022-10-24T12:38:20.262Z,18.13
2022-10-24T12:40:52.189Z,15.77
2022-10-24T12:43:44.319Z,13.02
2022-10-24T12:46:53.663Z,14.75
2022-10-24T12:49:28.347Z,14.70
2022-10-24T12:51:57.128Z,18.10
2022-10-24T12:54:43.044Z,17.00
2022-10-24T12:57:23.896Z,14.88
2022-10-24T12:59:53.808Z,14.18
2022-10-24T13:02:48.319Z,19.33
2022-10-24T13:05:34.963Z,13.70
2022-10-24T13:08:19.094Z,13.13
2022-10-24T13:10:59.060Z,16.90
2022-10-24T13:14:06.533Z,18.38
2022-10-24T13:16:45.277Z,14.80
2022-10-24T13:19:18.511Z,15.32
2022-10-24T13:21:49.247Z,19.45
2022-10-24T13:24:25.800Z,15.93
2022-10-24T13:27:38.391Z,18.10
2022-10-24T13:30:34.699Z,17.05
2022-10-24T13:33:41.031Z,15.88
2022-10-24T13:36:16.653Z,18.88
2022-10-24T13:38:49.555Z,14.20
2022-10-24T13:41:24.850Z,14.27
2022-10-24T13:43:56.165Z,15.93
2022-10-24T13:46:34.218Z,21.63
2022-10-24T13:49:04.231Z,15.90
2022-10-24T13:51:38.136Z,13.75
2022-10-24T13:54:12.277Z,15.10
2022-10-24T13:56:44.342Z,19.38
2022-10-24T13:59:30.474Z,15.55
2022-10-24T14:02:03.091Z,15.13
2022-10-24T14:04:32.000Z,16.25
2022-10-24T14:07:03.667Z,19.30
2022-10-24T14:09:32.157Z,12.57
2022-10-24T14:12:00.051Z,19.65
2022-10-24T14:14:31.326Z,21.48
2022-10-24T14:17:23.315Z,19.58
2022-10-24T14:19:55.552Z,18.40
2022-10-24T14:22:26.175Z,18.30
2022-10-24T14:24:54.080Z,12.68
2022-10-24T14:27:22.368Z,18.98
2022-10-24T14:30:01.842Z,20.58
2022-10-24T14:32:32.326Z,19.67
2022-10-24T14:37:37.612Z,18.45
2022-10-24T14:40:07.160Z,20.73
2022-10-24T14:42:35.710Z,15.65
2022-10-24T14:45:03.615Z,20.85
2022-10-24T14:47:38.921Z,17.67
2022-10-24T14:50:37.988Z,24.10
2022-10-24T14:53:06.568Z,14.82
2022-10-24T14:55:34.782Z,13.93
2022-10-24T14:58:02.642Z,15.05
2022-10-24T15:00:39.361Z,16.35
2022-10-24T15:03:11.096Z,16.45
2022-10-24T15:05:41.487Z,14.88
2022-10-24T15:08:28.889Z,18.70
2022-10-24T15:11:15.164Z,19.73
2022-10-24T15:13:59.974Z,17.50
2022-10-24T15:16:37.740Z,18.92
2022-10-24T15:19:13.696Z,18.80
2022-10-24T15:21:47.309Z,18.00
2022-10-24T15:24:22.917Z,20.10
2022-10-24T15:26:50.879Z,25.63
2022-10-24T15:29:21.995Z,28.05
2022-10-24T15:31:51.829Z,25.65
2022-10-24T15:34:22.822Z,25.48
2022-10-24T15:36:53.125Z,19.25
2022-10-24T15:39:24.403Z,24.58
2022-10-24T15:41:52.853Z,29.70
2022-10-24T15:44:24.970Z,29.42
2022-10-24T15:46:52.796Z,24.20
2022-10-24T15:49:22.307Z,24.27
2022-10-24T15:51:51.427Z,21.80
2022-10-24T15:54:21.255Z,24.45
2022-10-24T15:56:49.314Z,24.60
2022-10-24T15:59:18.543Z,21.38
2022-10-24T16:01:50.750Z,21.65
2022-10-24T16:04:20.170Z,22.00
2022-10-24T16:06:49.683Z,22.35
2022-10-24T16:09:20.257Z,28.50
2022-10-24T16:11:48.604Z,28.98
2022-10-24T16:14:17.935Z,23.88
2022-10-24T16:16:45.826Z,25.48
2022-10-24T16:19:13.717Z,26.33
2022-10-24T16:21:42.631Z,20.52
2022-10-24T16:24:14.057Z,19.92
2022-10-24T16:26:42.209Z,22.92
2022-10-24T16:29:10.036Z,27.10
2022-10-24T16:31:38.375Z,30.30
2022-10-24T16:34:07.377Z,32.03
2022-10-24T16:36:35.317Z,27.02
2022-10-24T16:39:03.634Z,29.08
2022-10-24T16:41:33.002Z,34.17
2022-10-24T16:44:01.037Z,26.35
2022-10-24T16:46:29.323Z,27.90
2022-10-24T16:48:58.064Z,25.17
2022-10-24T16:51:32.013Z,27.83
2022-10-24T16:54:00.376Z,28.77
2022-10-24T16:56:28.349Z,29.63
2022-10-24T16:58:57.636Z,21.83
2022-10-24T17:01:27.547Z,25.43
2022-10-24T17:03:55.844Z,32.17
2022-10-24T17:06:24.005Z,33.13
2022-10-24T17:08:52.603Z,24.23
2022-10-24T17:11:43.683Z,31.03
2022-10-24T17:14:10.371Z,35.90
2022-10-24T17:16:38.236Z,28.53
2022-10-24T17:19:15.701Z,25.53
2022-10-24T17:21:46.780Z,25.90
2022-10-24T17:24:16.219Z,34.63
2022-10-24T17:26:44.294Z,27.83
2022-10-24T17:29:20.274Z,37.27
2022-10-24T17:31:48.505Z,30.27
2022-10-24T17:34:16.635Z,31.97
2022-10-24T17:36:48.406Z,33.30
2022-10-24T17:39:22.259Z,33.27
2022-10-24T17:41:53.786Z,35.87
2022-10-24T17:44:23.716Z,48.07
2022-10-24T17:46:55.905Z,34.87
2022-10-24T17:49:26.682Z,39.03
2022-10-24T17:51:54.588Z,33.57
2022-10-24T17:54:22.901Z,32.87
2022-10-24T17:56:50.958Z,32.20
2022-10-24T17:59:18.843Z,33.83
2022-10-24T18:01:48.229Z,33.70
2022-10-24T18:04:16.617Z,30.03
2022-10-24T18:06:44.786Z,31.37
2022-10-24T18:09:13.278Z,30.53
2022-10-24T18:11:41.220Z,30.40
2022-10-24T18:14:09.166Z,28.00
2022-10-24T18:16:39.438Z,28.53
2022-10-24T18:19:08.707Z,28.80
2022-10-24T18:21:36.635Z,30.07
2022-10-24T18:24:07.385Z,34.73
2022-10-24T18:26:35.424Z,30.67
2022-10-24T18:29:03.271Z,27.10
2022-10-24T18:31:33.977Z,33.13
2022-10-24T18:34:06.051Z,23.57
2022-10-24T18:36:37.487Z,32.20
2022-10-24T18:39:06.081Z,33.93
2022-10-24T18:41:44.964Z,37.83
2022-10-24T18:44:24.237Z,35.10
2022-10-24T18:46:53.453Z,40.73
2022-10-24T18:49:22.004Z,52.17
2022-10-24T18:52:02.759Z,49.60
2022-10-24T18:54:31.408Z,41.20
2022-10-24T18:57:00.792Z,42.17
2022-10-24T18:59:30.861Z,38.63
2022-10-24T19:02:17.076Z,43.27
2022-10-24T19:04:49.236Z,41.50
2022-10-24T19:07:19.563Z,40.40
2022-10-24T19:09:47.610Z,44.00
2022-10-24T19:12:17.729Z,40.03
2022-10-24T19:14:47.206Z,41.23
2022-10-24T19:17:16.278Z,40.47
2022-10-24T19:19:44.335Z,37.80
2022-10-24T19:22:12.201Z,48.03
2022-10-24T19:24:41.477Z,42.23
2022-10-24T19:27:09.531Z,43.33
2022-10-24T19:29:37.531Z,41.80
2022-10-24T19:32:05.668Z,51.10
2022-10-24T19:34:34.836Z,49.63
2022-10-24T19:37:03.781Z,49.53
2022-10-24T19:39:33.895Z,58.43
2022-10-24T19:42:03.452Z,49.13
2022-10-24T19:44:31.272Z,55.93
2022-10-24T19:46:59.106Z,42.50
2022-10-24T19:49:26.949Z,65.30
2022-10-24T19:51:56.836Z,55.53
2022-10-24T19:54:24.721Z,61.23
2022-10-24T19:56:54.406Z,61.67
2022-10-24T19:59:23.680Z,73.07
2022-10-24T20:01:51.608Z,70.10
2022-10-24T20:04:19.656Z,49.43
2022-10-24T20:06:48.028Z,53.37
2022-10-24T20:09:16.030Z,53.33
2022-10-24T20:11:43.873Z,49.23
2022-10-24T20:14:11.771Z,54.90
2022-10-24T20:16:41.038Z,48.17
2022-10-24T20:19:08.883Z,51.67
2022-10-24T20:21:37.626Z,37.13
2022-10-24T20:24:06.189Z,43.13
2022-10-24T20:26:34.325Z,41.10
2022-10-24T20:29:02.349Z,40.47
2022-10-24T20:31:32.376Z,41.33
2022-10-24T20:34:07.996Z,33.80
2022-10-24T20:36:37.076Z,43.73
2022-10-24T20:39:05.537Z,50.27
2022-10-24T20:41:33.472Z,71.17
2022-10-24T20:44:02.496Z,49.20
2022-10-24T20:46:30.389Z,48.90
2022-10-24T20:48:58.768Z,42.77
2022-10-24T20:51:28.262Z,35.43
2022-10-24T20:53:56.126Z,33.47
2022-10-24T20:56:26.764Z,28.03
2022-10-24T20:58:56.331Z,26.23
2022-10-24T21:01:25.717Z,33.37
2022-10-24T21:03:54.844Z,28.37
2022-10-24T21:06:24.965Z,27.20
2022-10-24T21:08:56.413Z,33.23
2022-10-24T21:11:27.344Z,38.03
2022-10-24T21:13:57.125Z,35.07
2022-10-24T21:16:26.050Z,37.53
2022-10-24T21:18:54.424Z,38.50
2022-10-24T21:21:23.686Z,41.03
2022-10-24T21:23:52.832Z,35.67
2022-10-24T21:26:22.783Z,40.13
2022-10-24T21:28:53.999Z,37.07
2022-10-24T21:31:27.311Z,36.20
2022-10-24T21:33:55.818Z,44.23
2022-10-24T21:36:24.540Z,35.27
2022-10-24T21:38:54.093Z,32.07
2022-10-24T21:41:24.049Z,29.63
2022-10-24T21:43:53.010Z,33.67
2022-10-24T21:46:22.483Z,40.80
2022-10-24T21:48:52.143Z,34.50
2022-10-24T21:51:21.834Z,38.27
2022-10-24T21:53:51.387Z,34.87
2022-10-24T21:56:21.172Z,33.43
2022-10-24T21:58:52.018Z,34.80
2022-10-24T22:01:21.781Z,42.17
2022-10-24T22:03:49.695Z,36.40
2022-10-24T22:06:19.271Z,35.07
2022-10-24T22:08:48.568Z,41.77
2022-10-24T22:11:18.328Z,36.60
2022-10-24T22:13:46.592Z,35.90
2022-10-24T22:16:17.775Z,29.73
2022-10-24T22:18:46.127Z,36.67
2022-10-24T22:21:23.687Z,34.70
2022-10-24T22:23:51.636Z,32.07
2022-10-24T22:26:19.660Z,35.07
2022-10-24T22:28:47.537Z,32.33
2022-10-24T22:31:17.792Z,38.40
2022-10-24T22:33:46.261Z,33.93
2022-10-24T22:36:20.971Z,26.93
2022-10-24T22:38:53.124Z,30.40
2022-10-24T22:41:21.700Z,32.03
2022-10-24T22:43:50.278Z,39.80
2022-10-24T22:46:33.906Z,38.63
2022-10-24T22:51:42.979Z,30.10
2022-10-24T22:54:17.809Z,30.47
2022-10-24T22:56:46.279Z,29.60
2022-10-24T22:59:14.606Z,32.80
2022-10-24T23:01:57.924Z,29.67
2022-10-24T23:04:35.063Z,30.13
2022-10-24T23:07:11.394Z,25.83
2022-10-24T23:09:39.277Z,37.67
2022-10-24T23:12:13.602Z,34.13
2022-10-24T23:14:42.182Z,26.23
2022-10-24T23:17:13.929Z,30.77
2022-10-24T23:19:46.865Z,28.13
2022-10-24T23:22:23.080Z,28.43
2022-10-24T23:24:52.118Z,29.67
2022-10-24T23:27:44.970Z,27.47
2022-10-24T23:30:19.082Z,26.13
2022-10-24T23:32:49.931Z,28.17
2022-10-24T23:35:20.323Z,30.50
2022-10-24T23:37:50.038Z,29.20
2022-10-24T23:40:29.997Z,31.13
2022-10-24T23:42:58.921Z,28.67
2022-10-24T23:45:28.491Z,31.07
2022-10-24T23:48:08.703Z,27.80
2022-10-24T23:50:45.873Z,31.83
2022-10-24T23:53:24.911Z,36.07
2022-10-24T23:55:53.437Z,40.67
2022-10-24T23:58:21.477Z,41.60
